Time;durP1;ratioP1;P1;durP2;ratioP2;P2;SDS_P1;SDS_P2;PMS_P1;PMS_P2;Temp;Humidity;BMP_temperature;BMP_pressure;BME280_temperature;BME280_humidity;BME280_pressure;Samples;Min_cycle;Max_cycle;Signal;HPM_P1;HPM_P2
2022/11/16 00:02:08;;;;;;;2.13;1.93;;;12.60;99.90;;;;;;5054082;28;20229;-86
2022/11/16 00:04:42;;;;;;;2.17;1.60;;;12.50;99.90;;;;;;5054240;28;20186;-87
2022/11/16 00:07:11;;;;;;;1.63;1.53;;;12.50;99.90;;;;;;5054547;28;20563;-87
2022/11/16 00:09:39;;;;;;;1.70;1.60;;;12.30;99.90;;;;;;5054031;28;20197;-86
2022/11/16 00:12:12;;;;;;;2.43;1.40;;;12.30;99.90;;;;;;5054278;28;20214;-86
2022/11/16 00:14:45;;;;;;;1.27;1.23;;;12.30;99.90;;;;;;5054631;28;20205;-86
2022/11/16 00:17:17;;;;;;;2.00;1.40;;;12.30;99.90;;;;;;5054443;28;20213;-87
2022/11/16 00:19:47;;;;;;;1.53;1.43;;;12.30;99.90;;;;;;5054267;28;20220;-87
2022/11/16 00:22:15;;;;;;;1.40;1.30;;;12.30;99.90;;;;;;5054046;28;20328;-86
2022/11/16 00:24:43;;;;;;;3.43;1.90;;;12.30;99.90;;;;;;5054173;28;20209;-86
2022/11/16 00:27:16;;;;;;;2.27;1.70;;;12.40;99.90;;;;;;5053981;28;20678;-86
2022/11/16 00:29:45;;;;;;;1.83;1.60;;;12.30;99.90;;;;;;5054023;28;20202;-86
2022/11/16 00:32:13;;;;;;;2.13;1.60;;;12.40;99.90;;;;;;5054220;28;20224;-86
2022/11/16 00:34:47;;;;;;;2.33;1.70;;;12.40;99.90;;;;;;5053777;28;20224;-87
2022/11/16 00:37:14;;;;;;;2.70;1.90;;;12.50;99.90;;;;;;5053717;28;20657;-86
2022/11/16 00:39:47;;;;;;;2.47;1.90;;;12.60;99.90;;;;;;5053702;28;20205;-86
2022/11/16 00:42:14;;;;;;;1.73;1.50;;;12.50;99.90;;;;;;5053465;28;20236;-86
2022/11/16 00:44:41;;;;;;;3.87;2.07;;;12.50;99.90;;;;;;5054069;28;20214;-86
2022/11/16 00:47:08;;;;;;;2.10;1.98;;;12.40;99.90;;;;;;5052931;28;20436;-86
2022/11/16 00:49:41;;;;;;;2.00;1.80;;;12.40;99.90;;;;;;5053901;28;20212;-86
2022/11/16 00:52:10;;;;;;;2.27;1.60;;;12.40;99.90;;;;;;5053803;28;20209;-86
2022/11/16 00:54:37;;;;;;;2.13;1.57;;;12.30;99.90;;;;;;5053719;28;20201;-86
2022/11/16 00:57:05;;;;;;;3.03;1.50;;;12.20;99.90;;;;;;5053977;28;20196;-86
2022/11/16 00:59:34;;;;;;;3.73;1.40;;;12.30;99.90;;;;;;5053622;28;20205;-86
2022/11/16 01:02:07;;;;;;;3.63;1.80;;;12.30;99.90;;;;;;5053389;28;20324;-87
2022/11/16 01:04:34;;;;;;;1.80;1.63;;;12.20;99.90;;;;;;5053690;28;20205;-86
2022/11/16 01:07:02;;;;;;;3.10;1.50;;;12.20;99.90;;;;;;5053729;28;20560;-87
2022/11/16 01:09:36;;;;;;;4.07;1.73;;;12.20;99.90;;;;;;5053078;28;20202;-87
2022/11/16 01:12:08;;;;;;;2.50;1.60;;;12.30;99.90;;;;;;5053351;28;20206;-87
2022/11/16 01:14:47;;;;;;;2.53;1.57;;;12.20;99.90;;;;;;5053140;28;20673;-87
2022/11/16 01:17:17;;;;;;;4.70;1.60;;;12.10;99.90;;;;;;5053251;28;20197;-86
2022/11/16 01:19:45;;;;;;;5.63;1.77;;;12.10;99.90;;;;;;5053241;28;20193;-86
2022/11/16 01:22:12;;;;;;;3.37;1.63;;;12.00;99.90;;;;;;5052090;28;20235;-86
2022/11/16 01:24:45;;;;;;;6.70;1.60;;;12.00;99.90;;;;;;5053185;28;20190;-86
2022/11/16 01:27:13;;;;;;;4.20;1.57;;;11.90;99.90;;;;;;5053234;28;20568;-87
2022/11/16 01:29:46;;;;;;;2.67;1.23;;;11.80;99.90;;;;;;5053249;28;20575;-86
2022/11/16 01:32:15;;;;;;;3.97;1.30;;;12.00;99.90;;;;;;5053362;28;20578;-86
2022/11/16 01:34:44;;;;;;;3.17;1.60;;;12.00;99.90;;;;;;5053288;28;20188;-86
2022/11/16 01:37:12;;;;;;;2.53;1.27;;;12.00;99.90;;;;;;5052866;28;20210;-86
2022/11/16 01:39:44;;;;;;;3.90;1.93;;;11.90;99.90;;;;;;5052991;28;20680;-87
2022/11/16 01:42:18;;;;;;;4.37;1.40;;;11.90;99.90;;;;;;5053094;28;20240;-87
2022/11/16 01:45:01;;;;;;;1.53;1.13;;;11.90;99.90;;;;;;5055072;28;20209;-87
2022/11/16 01:47:34;;;;;;;2.70;1.30;;;11.90;99.90;;;;;;5056956;28;20212;-87
2022/11/16 01:50:09;;;;;;;6.07;1.57;;;11.90;99.90;;;;;;5057005;28;20244;-86
2022/11/16 01:52:40;;;;;;;1.77;1.20;;;11.90;99.90;;;;;;5056915;28;20200;-87
2022/11/16 01:55:15;;;;;;;3.40;1.60;;;11.80;99.90;;;;;;5056808;28;20198;-87
2022/11/16 01:57:47;;;;;;;5.13;1.83;;;11.70;99.90;;;;;;5057007;28;20655;-87
2022/11/16 02:00:17;;;;;;;4.17;1.40;;;11.70;99.90;;;;;;5056419;28;20204;-87
2022/11/16 02:02:45;;;;;;;3.93;1.50;;;11.60;99.90;;;;;;5056591;28;20231;-87
2022/11/16 02:05:17;;;;;;;2.70;1.37;;;11.60;99.90;;;;;;5056726;28;20718;-87
2022/11/16 02:11:25;;;;;;;2.37;1.20;;;11.60;99.90;;;;;;5056497;28;20204;-87
2022/11/16 02:14:04;;;;;;;4.00;1.43;;;11.60;99.90;;;;;;5056551;28;20216;-87
2022/11/16 02:16:38;;;;;;;7.70;1.30;;;11.60;99.90;;;;;;5056229;28;20552;-87
2022/11/16 02:19:31;;;;;;;3.30;1.17;;;11.50;99.90;;;;;;5056430;28;20670;-87
2022/11/16 02:22:06;;;;;;;2.63;1.23;;;11.50;99.90;;;;;;5055714;28;20232;-88
2022/11/16 02:24:45;;;;;;;5.60;1.37;;;11.50;99.90;;;;;;5056598;28;20719;-87
2022/11/16 02:28:03;;;;;;;3.83;1.37;;;11.60;99.90;;;;;;5056529;28;20194;-87
2022/11/16 02:30:38;;;;;;;3.80;1.23;;;11.60;99.90;;;;;;5056590;28;20196;-87
2022/11/16 02:33:15;;;;;;;2.07;1.40;;;11.60;99.90;;;;;;5056049;28;20625;-87
2022/11/16 02:35:55;;;;;;;2.87;1.30;;;11.50;99.90;;;;;;5056132;28;20198;-87
2022/11/16 02:38:26;;;;;;;3.70;1.57;;;11.40;99.90;;;;;;5056492;28;20201;-87
2022/11/16 02:40:57;;;;;;;6.83;1.50;;;11.50;99.90;;;;;;5056050;28;20216;-87
2022/11/16 02:43:34;;;;;;;5.53;1.90;;;11.40;99.90;;;;;;5055886;28;20243;-87
2022/11/16 02:46:08;;;;;;;2.93;1.77;;;11.30;99.90;;;;;;5055985;28;20188;-87
2022/11/16 02:48:42;;;;;;;7.43;1.53;;;11.30;99.90;;;;;;5056140;28;20196;-87
2022/11/16 02:51:16;;;;;;;3.90;1.70;;;11.20;99.90;;;;;;5055765;28;20617;-87
2022/11/16 02:54:00;;;;;;;3.63;1.80;;;11.20;99.90;;;;;;5056156;28;20223;-87
2022/11/16 02:56:43;;;;;;;4.80;2.10;;;11.20;99.90;;;;;;5054843;28;20227;-87
2022/11/16 02:59:11;;;;;;;6.70;2.30;;;11.20;99.90;;;;;;5055759;28;20211;-87
2022/11/16 03:01:46;;;;;;;3.70;1.70;;;11.10;99.90;;;;;;5055984;28;20201;-86
2022/11/16 03:04:19;;;;;;;7.63;2.20;;;11.20;99.90;;;;;;5056063;28;20200;-87
2022/11/16 03:06:48;;;;;;;2.37;1.90;;;11.20;99.90;;;;;;5055584;28;20239;-87
2022/11/16 03:09:20;;;;;;;5.43;2.07;;;11.20;99.90;;;;;;5055460;28;20216;-86
2022/11/16 03:11:59;;;;;;;3.40;1.93;;;11.10;99.90;;;;;;5054846;28;20546;-87
2022/11/16 03:14:31;;;;;;;4.83;2.10;;;11.20;99.90;;;;;;5039057;28;20208;-87
2022/11/16 03:17:05;;;;;;;5.73;2.43;;;11.20;99.90;;;;;;5055528;28;20217;-87
2022/11/16 03:19:43;;;;;;;3.27;2.10;;;11.20;99.90;;;;;;5055240;28;20238;-87
2022/11/16 03:22:24;;;;;;;9.80;2.40;;;11.10;99.90;;;;;;5055333;28;20241;-87
2022/11/16 03:24:57;;;;;;;5.90;2.40;;;11.10;99.90;;;;;;5055672;28;20210;-87
2022/11/16 03:27:30;;;;;;;7.83;2.30;;;11.10;99.90;;;;;;5055725;28;20595;-85
2022/11/16 03:30:05;;;;;;;6.30;2.27;;;11.00;99.90;;;;;;5055540;28;20203;-87
2022/11/16 03:32:40;;;;;;;6.23;2.33;;;10.90;99.90;;;;;;5054692;28;20230;-88
2022/11/16 03:35:19;;;;;;;6.70;2.30;;;10.80;99.90;;;;;;5055054;28;20210;-87
2022/11/16 03:37:55;;;;;;;9.63;2.47;;;10.80;99.90;;;;;;5055307;28;20204;-87
2022/11/16 03:40:26;;;;;;;7.00;2.30;;;10.70;99.90;;;;;;5055297;28;20206;-87
2022/11/16 03:42:55;;;;;;;4.40;1.90;;;10.70;99.90;;;;;;5054654;28;20255;-87
2022/11/16 03:45:28;;;;;;;5.53;2.03;;;10.70;99.90;;;;;;5054961;28;20198;-87
2022/11/16 03:47:59;;;;;;;5.30;2.00;;;10.70;99.90;;;;;;5054550;28;20204;-86
2022/11/16 03:50:27;;;;;;;4.77;2.10;;;10.60;99.90;;;;;;5054914;28;20199;-87
2022/11/16 03:53:00;;;;;;;3.93;1.93;;;10.60;99.90;;;;;;5054871;28;20580;-87
2022/11/16 03:55:32;;;;;;;10.77;2.30;;;10.50;99.90;;;;;;5054655;28;20214;-87
2022/11/16 03:58:01;;;;;;;8.03;2.87;;;10.50;99.90;;;;;;5054778;28;20199;-87
2022/11/16 04:00:32;;;;;;;6.83;2.13;;;10.50;99.90;;;;;;5054770;28;20202;-86
2022/11/16 04:03:03;;;;;;;7.47;2.43;;;10.50;99.90;;;;;;5054363;28;20222;-87
2022/11/16 04:25:07;;;;;;;6.40;3.03;;;10.10;99.90;;;;;;5054337;28;20193;-86
2022/11/16 04:30:20;;;;;;;8.43;3.03;;;10.00;99.90;;;;;;5053877;28;20654;-90
2022/11/16 04:38:21;;;;;;;9.07;3.50;;;9.90;99.90;;;;;;5053829;28;20342;-91
2022/11/16 04:40:53;;;;;;;9.00;3.10;;;10.00;99.90;;;;;;5053732;28;20194;-90
2022/11/16 04:43:20;;;;;;;7.17;3.20;;;10.00;99.90;;;;;;5053590;28;20605;-90
2022/11/16 04:48:32;;;;;;;7.10;3.37;;;9.80;99.90;;;;;;5048734;28;20263;-91
2022/11/16 04:51:00;;;;;;;7.17;3.23;;;9.90;99.90;;;;;;5036943;28;20213;-90
2022/11/16 04:53:28;;;;;;;7.97;2.60;;;9.70;99.90;;;;;;5042752;28;20202;-90
2022/11/16 04:56:00;;;;;;;10.80;2.80;;;9.80;99.90;;;;;;5045723;28;20207;-90
2022/11/16 04:58:29;;;;;;;15.13;3.27;;;9.70;99.90;;;;;;5048814;28;20214;-90
2022/11/16 05:01:00;;;;;;;10.20;3.60;;;9.70;99.90;;;;;;5053396;28;20206;-91
2022/11/16 05:03:28;;;;;;;8.10;2.43;;;9.70;99.90;;;;;;5053452;28;20222;-90
2022/11/16 05:05:56;;;;;;;11.33;2.70;;;9.60;99.90;;;;;;5039786;28;20685;-90
2022/11/16 05:08:25;;;;;;;10.43;2.80;;;9.70;99.90;;;;;;5052966;28;20225;-89
2022/11/16 05:10:54;;;;;;;8.47;2.20;;;9.60;99.90;;;;;;5053334;28;20202;-89
2022/11/16 05:13:20;;;;;;;13.57;2.47;;;9.70;99.90;;;;;;5053202;28;20217;-88
2022/11/16 05:15:47;;;;;;;9.83;2.40;;;9.60;99.90;;;;;;5052584;28;20206;-90
2022/11/16 05:18:15;;;;;;;7.77;2.40;;;9.50;99.90;;;;;;5053391;28;20207;-89
2022/11/16 05:21:00;;;;;;;8.57;2.73;;;9.40;99.90;;;;;;5056858;28;20202;-89
2022/11/16 05:26:12;;;;;;;9.50;2.30;;;9.40;99.90;;;;;;5057268;28;20565;-89
2022/11/16 05:28:42;;;;;;;9.90;2.13;;;9.40;99.90;;;;;;5056569;28;20207;-89
2022/11/16 05:31:10;;;;;;;9.90;3.53;;;9.40;99.90;;;;;;5056969;28;20199;-88
2022/11/16 05:33:39;;;;;;;8.10;2.23;;;9.40;99.90;;;;;;5057207;28;20205;-89
2022/11/16 05:36:06;;;;;;;15.70;2.67;;;9.50;99.90;;;;;;5057116;28;20217;-88
2022/11/16 05:38:34;;;;;;;10.67;2.80;;;9.50;99.90;;;;;;5057007;28;20202;-89
2022/11/16 05:41:01;;;;;;;6.43;2.30;;;9.40;99.90;;;;;;5056665;28;20225;-89
2022/11/16 05:43:29;;;;;;;11.13;3.03;;;9.50;99.90;;;;;;5055238;28;20460;-88
2022/11/16 05:46:02;;;;;;;7.83;2.77;;;9.50;99.90;;;;;;5056806;28;20213;-91
2022/11/16 05:48:29;;;;;;;7.77;2.60;;;9.50;99.90;;;;;;5056693;28;20212;-91
2022/11/16 05:50:58;;;;;;;12.20;2.47;;;9.30;99.90;;;;;;5056614;28;20209;-89
2022/11/16 05:53:31;;;;;;;13.43;2.63;;;9.40;99.90;;;;;;5056734;28;20668;-88
2022/11/16 05:55:59;;;;;;;10.47;3.00;;;9.40;99.90;;;;;;5056648;28;20541;-88
2022/11/16 05:58:26;;;;;;;7.57;2.23;;;9.40;99.90;;;;;;5056128;28;20205;-90
2022/11/16 06:00:53;;;;;;;10.47;2.10;;;9.40;99.90;;;;;;5056467;28;20203;-88
2022/11/16 06:03:20;;;;;;;13.67;2.43;;;9.40;99.90;;;;;;5056506;28;20226;-88
2022/11/16 06:05:47;;;;;;;6.00;1.60;;;9.30;99.90;;;;;;5056517;28;20230;-88
2022/11/16 06:08:16;;;;;;;10.63;2.50;;;9.30;99.90;;;;;;5056409;28;20209;-89
2022/11/16 06:10:49;;;;;;;9.70;2.70;;;9.30;99.90;;;;;;5042871;28;20293;-92
2022/11/16 06:13:17;;;;;;;14.32;3.20;;;9.20;99.90;;;;;;5055271;28;20433;-89
2022/11/16 06:15:45;;;;;;;12.33;2.57;;;9.30;99.90;;;;;;5056462;28;20216;-91
2022/11/16 06:18:13;;;;;;;7.13;1.70;;;9.30;99.90;;;;;;5056265;28;20202;-88
2022/11/16 06:20:41;;;;;;;12.30;2.70;;;9.30;99.90;;;;;;5055985;28;20203;-91
2022/11/16 06:23:08;;;;;;;9.37;2.37;;;9.20;99.90;;;;;;5056132;28;20689;-92
2022/11/16 06:25:35;;;;;;;6.80;2.37;;;9.20;99.90;;;;;;5055948;28;20216;-89
2022/11/16 06:28:01;;;;;;;12.17;2.50;;;9.20;99.90;;;;;;5055240;28;20202;-90
2022/11/16 06:30:32;;;;;;;13.23;2.33;;;9.10;99.90;;;;;;5054697;28;20202;-89
2022/11/16 06:32:58;;;;;;;10.97;2.27;;;9.20;99.90;;;;;;5055815;28;20222;-88
2022/11/16 06:35:26;;;;;;;11.33;2.60;;;9.00;99.90;;;;;;5055279;28;20560;-89
2022/11/16 06:37:54;;;;;;;8.10;2.63;;;9.10;99.90;;;;;;5055758;28;20646;-88
2022/11/16 06:40:23;;;;;;;8.57;2.50;;;9.20;99.90;;;;;;5055980;28;20206;-91
2022/11/16 06:42:50;;;;;;;12.97;3.70;;;9.10;99.90;;;;;;5054447;28;20438;-89
2022/11/16 06:45:17;;;;;;;7.23;2.40;;;9.20;99.90;;;;;;5055848;28;20451;-91
2022/11/16 06:47:45;;;;;;;14.00;2.80;;;9.00;99.90;;;;;;5056240;28;20195;-90
2022/11/16 06:50:13;;;;;;;10.47;3.17;;;9.10;99.90;;;;;;5055303;28;20221;-91
2022/11/16 06:52:41;;;;;;;17.33;3.07;;;9.00;99.90;;;;;;5042897;28;20214;-91
2022/11/16 06:55:10;;;;;;;12.43;2.63;;;9.00;99.90;;;;;;5056008;28;20217;-90
2022/11/16 06:57:37;;;;;;;12.17;2.87;;;9.00;99.90;;;;;;5055804;28;20240;-89
2022/11/16 07:00:07;;;;;;;9.03;2.80;;;9.00;99.90;;;;;;5055702;28;20225;-93
2022/11/16 07:02:40;;;;;;;10.63;3.03;;;9.00;99.90;;;;;;5055170;28;20676;-90
2022/11/16 07:05:09;;;;;;;10.60;3.30;;;9.00;99.90;;;;;;5054833;28;20238;-90
2022/11/16 07:07:36;;;;;;;13.23;3.07;;;8.90;99.90;;;;;;5054895;28;20199;-89
2022/11/16 07:10:04;;;;;;;12.10;3.13;;;8.90;99.90;;;;;;5054995;28;20206;-90
2022/11/16 07:12:31;;;;;;;8.13;2.83;;;8.90;99.90;;;;;;5055235;28;20676;-90
2022/11/16 07:15:04;;;;;;;8.83;2.43;;;8.80;99.90;;;;;;5055356;28;20206;-93
2022/11/16 07:17:34;;;;;;;7.50;2.83;;;8.80;99.90;;;;;;5054986;28;20206;-92
2022/11/16 07:20:04;;;;;;;8.77;2.77;;;8.80;99.90;;;;;;5055739;28;20206;-91
2022/11/16 07:22:33;;;;;;;11.50;3.03;;;8.80;99.90;;;;;;5055361;28;20195;-90
2022/11/16 07:25:01;;;;;;;12.80;2.70;;;8.90;99.90;;;;;;5054859;28;20241;-92
2022/11/16 07:27:29;;;;;;;9.60;3.07;;;8.90;99.90;;;;;;5055515;28;20240;-94
2022/11/16 07:29:56;;;;;;;9.70;2.93;;;8.90;99.90;;;;;;5055040;28;20214;-91
2022/11/16 07:32:24;;;;;;;9.47;2.40;;;8.80;99.90;;;;;;5054908;28;20215;-88
2022/11/16 07:34:52;;;;;;;8.00;2.70;;;8.90;99.90;;;;;;5054900;28;20215;-89
2022/11/16 07:37:19;;;;;;;4.97;2.50;;;8.90;99.90;;;;;;5054667;28;20210;-89
2022/11/16 07:39:49;;;;;;;12.10;2.60;;;9.00;99.90;;;;;;5054321;28;20191;-90
2022/11/16 07:42:16;;;;;;;14.30;2.60;;;8.90;99.90;;;;;;5054387;28;20677;-87
2022/11/16 07:44:42;;;;;;;10.20;2.80;;;8.90;99.90;;;;;;5054350;28;20241;-87
2022/11/16 07:47:11;;;;;;;10.27;3.13;;;9.00;99.90;;;;;;5054808;28;20377;-90
2022/11/16 07:49:40;;;;;;;10.27;2.50;;;9.00;99.90;;;;;;5054515;28;20206;-87
2022/11/16 07:52:13;;;;;;;8.00;2.27;;;9.10;99.90;;;;;;5054493;28;20206;-88
2022/11/16 07:54:39;;;;;;;11.50;2.60;;;9.10;99.90;;;;;;5052642;28;20206;-91
2022/11/16 07:57:08;;;;;;;9.73;2.73;;;9.10;99.90;;;;;;5035719;28;20206;-86
2022/11/16 07:59:35;;;;;;;7.20;2.47;;;9.10;99.90;;;;;;5057021;28;20206;-90
2022/11/16 08:02:01;;;;;;;9.70;2.50;;;9.20;99.90;;;;;;5059854;28;20203;-87
2022/11/16 08:04:28;;;;;;;11.43;3.13;;;9.20;99.90;;;;;;5070873;28;20233;-90
2022/11/16 08:06:55;;;;;;;10.83;3.03;;;9.20;99.90;;;;;;5054374;28;20712;-90
2022/11/16 08:09:22;;;;;;;9.60;2.90;;;9.20;99.90;;;;;;5065834;28;20563;-89
2022/11/16 08:11:50;;;;;;;7.27;2.83;;;9.10;99.90;;;;;;5059145;28;20206;-92
2022/11/16 08:14:19;;;;;;;11.17;3.47;;;9.10;99.90;;;;;;5055019;28;20210;-89
2022/11/16 08:16:46;;;;;;;10.80;2.80;;;9.20;99.90;;;;;;5054270;28;20650;-92
2022/11/16 08:19:12;;;;;;;7.20;2.50;;;9.20;99.90;;;;;;5054054;28;20229;-91
2022/11/16 08:21:39;;;;;;;9.87;2.90;;;9.20;99.90;;;;;;5054479;28;20213;-93
2022/11/16 08:24:07;;;;;;;10.37;3.00;;;9.20;99.90;;;;;;5053920;28;20214;-93
2022/11/16 08:26:33;;;;;;;9.33;3.00;;;9.30;99.90;;;;;;5054183;28;20210;-90
2022/11/16 08:29:00;;;;;;;12.23;5.30;;;9.30;99.90;;;;;;5054278;28;20210;-89
2022/11/16 08:31:29;;;;;;;8.07;3.27;;;9.30;99.90;;;;;;5059390;28;20202;-93
2022/11/16 08:33:56;;;;;;;8.83;2.67;;;9.30;99.90;;;;;;5059734;28;20198;-93
2022/11/16 08:36:24;;;;;;;8.53;2.90;;;9.30;99.90;;;;;;5062083;28;20634;-87
2022/11/16 08:38:52;;;;;;;12.20;2.90;;;9.40;99.90;;;;;;5057836;28;20468;-92
2022/11/16 08:41:20;;;;;;;8.97;2.60;;;9.50;99.90;;;;;;5063153;28;20665;-92
2022/11/16 08:43:49;;;;;;;10.73;3.33;;;9.50;99.90;;;;;;5048214;28;20454;-95
2022/11/16 08:46:16;;;;;;;12.27;3.30;;;9.60;99.90;;;;;;5045926;28;20821;-93
2022/11/16 08:48:45;;;;;;;10.97;2.87;;;9.70;99.90;;;;;;5062580;28;20199;-91
2022/11/16 08:51:14;;;;;;;6.40;2.53;;;9.70;99.90;;;;;;5051192;28;20221;-94
2022/11/16 08:53:46;;;;;;;8.30;2.60;;;9.80;99.90;;;;;;5044560;28;20209;-92
2022/11/16 08:56:13;;;;;;;11.93;2.70;;;9.80;99.90;;;;;;5052984;28;20202;-91
2022/11/16 08:58:42;;;;;;;6.77;2.10;;;9.90;99.90;;;;;;5054732;28;20211;-89
2022/11/16 09:01:10;;;;;;;8.27;2.77;;;10.00;99.90;;;;;;5065392;28;20238;-92
2022/11/16 09:03:37;;;;;;;10.83;2.73;;;9.90;99.90;;;;;;5072715;28;20199;-93
2022/11/16 09:06:06;;;;;;;6.10;2.60;;;10.00;99.90;;;;;;5069335;28;20226;-92
2022/11/16 09:08:34;;;;;;;6.87;2.87;;;10.00;99.90;;;;;;5065781;28;20201;-92
2022/11/16 09:11:04;;;;;;;12.07;2.30;;;10.00;99.90;;;;;;5064885;28;20195;-92
2022/11/16 09:13:31;;;;;;;8.53;2.23;;;10.10;99.90;;;;;;5066729;28;20207;-92
2022/11/16 09:16:02;;;;;;;8.57;2.30;;;10.10;99.90;;;;;;5067289;28;20204;-92
2022/11/16 09:18:29;;;;;;;10.60;2.50;;;10.30;99.90;;;;;;5043568;28;20195;-90
2022/11/16 09:20:56;;;;;;;6.97;2.30;;;10.40;99.90;;;;;;5046381;28;20197;-88
2022/11/16 09:23:24;;;;;;;10.67;2.00;;;10.50;99.90;;;;;;5074028;28;20210;-92
2022/11/16 09:25:51;;;;;;;6.47;2.20;;;10.50;99.90;;;;;;5055161;28;20245;-90
2022/11/16 09:28:20;;;;;;;11.00;2.23;;;10.60;99.90;;;;;;5054698;28;20199;-89
2022/11/16 09:30:49;;;;;;;6.33;2.20;;;10.60;99.90;;;;;;5053589;28;20203;-89
2022/11/16 09:33:16;;;;;;;8.77;2.00;;;10.50;99.90;;;;;;5052423;28;20209;-89
2022/11/16 09:35:43;;;;;;;6.43;2.33;;;10.50;99.90;;;;;;5047741;28;20207;-88
2022/11/16 09:38:12;;;;;;;6.47;2.63;;;10.50;99.90;;;;;;5061051;28;20215;-90
2022/11/16 09:40:44;;;;;;;5.47;2.10;;;10.50;99.90;;;;;;5058842;28;20191;-90
2022/11/16 09:43:19;;;;;;;6.20;1.90;;;10.40;99.90;;;;;;5058025;28;20214;-90
2022/11/16 09:45:58;;;;;;;7.60;2.00;;;10.50;99.90;;;;;;5056484;28;20216;-90
2022/11/16 09:48:26;;;;;;;6.23;1.77;;;10.50;99.90;;;;;;5057517;28;20203;-90
2022/11/16 09:51:00;;;;;;;6.30;2.00;;;10.50;99.90;;;;;;5057257;28;20207;-90
2022/11/16 09:53:34;;;;;;;5.53;2.47;;;10.50;99.90;;;;;;5052958;28;20206;-90
2022/11/16 09:56:12;;;;;;;7.97;2.27;;;10.50;99.90;;;;;;5046889;28;20207;-90
2022/11/16 09:58:48;;;;;;;8.83;2.90;;;10.60;99.90;;;;;;5040700;28;20208;-92
2022/11/16 10:01:21;;;;;;;6.60;2.13;;;10.60;99.90;;;;;;5040648;28;20211;-92
2022/11/16 10:04:01;;;;;;;5.47;2.00;;;10.80;99.90;;;;;;5050649;28;20200;-93
2022/11/16 10:06:40;;;;;;;8.77;2.23;;;11.00;99.90;;;;;;5047947;28;20231;-90
2022/11/16 10:09:11;;;;;;;7.47;2.00;;;11.10;99.90;;;;;;5058562;28;20199;-89
2022/11/16 10:12:20;;;;;;;7.77;1.83;;;11.10;99.90;;;;;;5059717;28;20221;-88
2022/11/16 10:15:07;;;;;;;6.57;2.00;;;11.30;99.90;;;;;;4997914;28;20226;-89
2022/11/16 10:17:46;;;;;;;8.27;1.90;;;11.20;99.90;;;;;;5051888;28;20216;-89
2022/11/16 10:20:40;;;;;;;8.50;1.90;;;11.30;99.90;;;;;;5058864;28;20215;-88
2022/11/16 10:23:15;;;;;;;6.07;1.90;;;11.30;99.90;;;;;;5060220;28;20209;-88
2022/11/16 10:25:53;;;;;;;8.97;2.20;;;11.40;99.90;;;;;;5057711;28;20319;-90
2022/11/16 10:28:43;;;;;;;6.90;1.63;;;11.50;99.90;;;;;;5062813;28;20204;-91
2022/11/16 10:31:19;;;;;;;6.47;2.07;;;11.40;99.90;;;;;;5063064;28;20544;-92
2022/11/16 10:33:48;;;;;;;5.50;1.83;;;11.50;99.90;;;;;;5065514;28;20199;-88
2022/11/16 10:36:20;;;;;;;13.17;2.23;;;11.50;99.90;;;;;;5057196;28;20572;-89
2022/11/16 10:38:48;;;;;;;8.23;2.27;;;11.50;99.90;;;;;;5064076;28;20204;-92
2022/11/16 10:41:19;;;;;;;9.13;2.23;;;11.60;99.90;;;;;;5060977;28;20205;-88
2022/11/16 10:43:49;;;;;;;7.93;1.83;;;11.60;99.90;;;;;;5055749;28;20216;-88
2022/11/16 10:46:22;;;;;;;11.00;2.40;;;11.70;99.90;;;;;;5056118;28;20222;-88
2022/11/16 10:48:55;;;;;;;10.70;2.33;;;11.80;99.90;;;;;;5055951;28;20210;-90
2022/11/16 10:51:22;;;;;;;8.90;2.10;;;11.90;99.90;;;;;;5056533;28;20209;-89
2022/11/16 10:53:51;;;;;;;6.43;1.70;;;12.00;99.90;;;;;;5056584;28;20237;-88
2022/11/16 10:56:22;;;;;;;5.47;1.93;;;12.10;99.90;;;;;;5056311;28;20252;-88
2022/11/16 10:59:01;;;;;;;6.07;1.63;;;12.10;99.90;;;;;;5056302;28;20205;-89
2022/11/16 11:01:35;;;;;;;6.37;1.90;;;12.00;99.90;;;;;;5055101;28;20308;-87
2022/11/16 11:04:14;;;;;;;8.17;2.00;;;12.10;99.90;;;;;;5053045;28;20581;-88
2022/11/16 11:06:41;;;;;;;7.10;2.00;;;12.10;99.90;;;;;;5056854;28;20235;-88
2022/11/16 11:09:20;;;;;;;7.57;1.97;;;12.10;99.90;;;;;;5058029;28;20202;-91
2022/11/16 11:15:05;;;;;;;5.20;1.87;;;12.10;99.90;;;;;;5059007;28;20222;-89
2022/11/16 11:17:34;;;;;;;5.73;1.90;;;12.30;99.90;;;;;;5057044;28;20205;-89
2022/11/16 11:20:04;;;;;;;9.27;1.97;;;12.30;99.90;;;;;;5058230;28;20216;-89
2022/11/16 11:22:33;;;;;;;8.47;2.50;;;12.40;99.90;;;;;;5059060;28;20200;-90
2022/11/16 11:25:02;;;;;;;5.30;1.87;;;12.50;99.90;;;;;;5058115;28;20232;-90
2022/11/16 11:27:34;;;;;;;8.40;1.80;;;12.60;99.90;;;;;;5059477;28;20202;-90
2022/11/16 11:30:03;;;;;;;3.43;2.10;;;12.60;99.90;;;;;;5056864;28;20206;-89
2022/11/16 11:32:34;;;;;;;11.17;2.17;;;12.60;99.90;;;;;;5057353;28;20263;-88
2022/11/16 11:35:02;;;;;;;6.67;2.30;;;12.60;99.90;;;;;;5057064;28;20581;-89
2022/11/16 11:37:33;;;;;;;8.63;2.33;;;12.50;99.90;;;;;;5057003;28;20668;-89
2022/11/16 11:40:20;;;;;;;4.90;1.83;;;12.30;99.90;;;;;;5056952;28;20217;-91
2022/11/16 11:43:20;;;;;;;4.70;1.87;;;12.30;99.90;;;;;;5048155;28;20213;-88
2022/11/16 11:45:54;;;;;;;5.90;2.07;;;12.30;99.90;;;;;;5059950;28;20239;-85
2022/11/16 11:48:37;;;;;;;7.67;2.03;;;12.30;99.90;;;;;;5054574;28;20209;-84
2022/11/16 11:51:13;;;;;;;7.37;1.73;;;12.10;99.90;;;;;;5054406;28;20212;-86
2022/11/16 11:53:48;;;;;;;10.73;2.75;;;12.00;99.90;;;;;;5053383;28;20431;-87
2022/11/16 11:56:15;;;;;;;6.43;1.90;;;11.90;99.90;;;;;;5054501;28;20571;-86
2022/11/16 11:58:43;;;;;;;11.13;2.40;;;11.80;99.90;;;;;;5054024;28;20664;-85
2022/11/16 12:01:30;;;;;;;10.00;2.17;;;11.70;99.90;;;;;;5053728;28;20218;-89
2022/11/16 12:04:33;;;;;;;8.63;2.07;;;11.70;99.90;;;;;;5054165;28;20202;-86
2022/11/16 12:07:09;;;;;;;10.87;2.00;;;11.60;99.90;;;;;;5051985;28;20231;-86
2022/11/16 12:09:45;;;;;;;7.73;2.20;;;11.60;99.90;;;;;;5054164;28;20679;-85
2022/11/16 12:12:27;;;;;;;10.37;2.03;;;11.70;99.90;;;;;;5054253;28;20220;-86
2022/11/16 12:15:08;;;;;;;8.67;2.50;;;11.70;99.90;;;;;;5054724;28;20213;-86
2022/11/16 12:17:47;;;;;;;3.97;1.93;;;11.80;99.90;;;;;;5055705;28;20549;-89
2022/11/16 12:20:30;;;;;;;7.10;2.20;;;11.70;99.90;;;;;;5054800;28;20205;-89
2022/11/16 12:23:16;;;;;;;10.63;2.77;;;11.80;99.90;;;;;;5038756;28;20209;-88
2022/11/16 12:25:49;;;;;;;9.23;2.33;;;11.80;99.90;;;;;;5050115;28;20235;-88
2022/11/16 12:28:30;;;;;;;6.80;2.60;;;11.80;99.90;;;;;;5047407;28;20213;-88
2022/11/16 12:31:19;;;;;;;15.93;2.70;;;11.70;99.90;;;;;;5028911;28;20212;-89
2022/11/16 12:33:56;;;;;;;9.53;2.63;;;11.90;99.90;;;;;;5045796;28;20198;-90
2022/11/16 12:36:33;;;;;;;11.03;3.07;;;12.00;99.90;;;;;;5048258;28;20205;-89
2022/11/16 12:39:16;;;;;;;13.27;3.75;;;11.90;99.90;;;;;;5044366;28;20422;-89
2022/11/16 12:42:08;;;;;;;10.00;3.00;;;12.20;99.90;;;;;;5046944;28;20209;-89
2022/11/16 12:44:50;;;;;;;9.75;3.35;;;12.30;99.90;;;;;;5051560;28;20215;-87
2022/11/16 12:47:25;;;;;;;9.43;3.30;;;12.20;99.90;;;;;;5055019;28;20430;-83
2022/11/16 12:50:08;;;;;;;11.63;4.00;;;12.20;99.90;;;;;;5051135;28;20208;-86
2022/11/16 12:52:49;;;;;;;10.07;3.27;;;12.10;99.90;;;;;;5055993;28;20208;-84
2022/11/16 12:55:25;;;;;;;11.67;3.53;;;11.90;99.90;;;;;;5052253;28;20218;-87
2022/11/16 12:58:02;;;;;;;16.20;3.20;;;11.90;99.90;;;;;;5047438;28;20221;-86
2022/11/16 13:00:37;;;;;;;9.90;2.63;;;11.90;99.90;;;;;;5044580;28;20209;-85
2022/11/16 13:03:18;;;;;;;10.40;3.37;;;11.90;99.90;;;;;;5051113;28;20214;-81
2022/11/16 13:05:55;;;;;;;11.67;3.20;;;12.10;99.90;;;;;;5053091;28;20228;-86
2022/11/16 13:08:35;;;;;;;8.80;2.70;;;12.10;99.90;;;;;;5041414;28;20220;-86
2022/11/16 13:11:06;;;;;;;6.83;2.40;;;12.00;99.90;;;;;;5034279;28;20206;-85
2022/11/16 13:13:34;;;;;;;9.20;2.70;;;12.00;99.90;;;;;;5039010;28;20213;-83
2022/11/16 13:16:05;;;;;;;8.70;2.53;;;12.10;99.90;;;;;;5039902;28;20683;-83
2022/11/16 13:18:34;;;;;;;11.00;3.22;;;12.10;99.90;;;;;;5041586;28;20427;-87
2022/11/16 13:21:10;;;;;;;11.73;2.63;;;12.20;99.90;;;;;;5035099;28;20199;-83
2022/11/16 13:23:46;;;;;;;6.90;3.17;;;12.20;99.90;;;;;;5050518;28;20657;-85
2022/11/16 13:26:20;;;;;;;12.43;2.50;;;12.30;99.90;;;;;;5054696;28;20229;-84
2022/11/16 13:28:56;;;;;;;5.67;2.53;;;12.30;99.90;;;;;;5060385;28;20205;-90
2022/11/16 13:31:30;;;;;;;8.77;2.73;;;12.40;99.90;;;;;;5067853;28;20210;-86
2022/11/16 13:34:01;;;;;;;13.87;2.83;;;12.50;99.90;;;;;;5055379;28;20197;-84
2022/11/16 13:36:46;;;;;;;9.40;3.00;;;12.50;99.90;;;;;;5051721;28;20198;-85
2022/11/16 13:39:18;;;;;;;8.77;2.50;;;12.30;99.90;;;;;;5051555;28;20248;-88
2022/11/16 13:41:46;;;;;;;7.23;2.40;;;12.30;99.90;;;;;;5054510;28;20220;-88
2022/11/16 13:44:36;;;;;;;8.80;2.77;;;12.30;99.90;;;;;;5053385;28;20224;-85
2022/11/16 13:47:06;;;;;;;8.90;2.80;;;12.30;99.90;;;;;;5033815;28;20229;-85
2022/11/16 13:49:37;;;;;;;6.47;2.90;;;12.30;99.90;;;;;;5065851;28;20194;-90
2022/11/16 13:52:07;;;;;;;11.20;2.80;;;12.40;99.90;;;;;;5071847;28;20216;-84
2022/11/16 13:54:36;;;;;;;7.80;2.30;;;12.30;99.90;;;;;;5062737;28;20228;-86